Time;durP1;ratioP1;P1;durP2;ratioP2;P2;SDS_P1;SDS_P2;PMS_P1;PMS_P2;Temp;Humidity;BMP_temperature;BMP_pressure;BME280_temperature;BME280_humidity;BME280_pressure;Samples;Min_cycle;Max_cycle;Signal;HPM_P1;HPM_P2
2021/03/11 00:00:38;;;;;;;12.50;8.37;;;;;;;;;;4759524;30;20237;-81
2021/03/11 00:03:15;;;;;;;13.00;8.70;;;;;;;;;;4743147;30;20236;-78
2021/03/11 00:05:43;;;;;;;10.73;8.17;;;;;;;;;;4747176;30;20241;-79
2021/03/11 00:08:11;;;;;;;13.30;8.67;;;;;;;;;;4749819;30;20245;-77
2021/03/11 00:10:39;;;;;;;12.07;8.30;;;;;;;;;;4750267;30;20239;-79
2021/03/11 00:13:07;;;;;;;11.13;7.67;;;;;;;;;;4744517;30;20241;-78
2021/03/11 00:15:37;;;;;;;11.13;8.50;;;;;;;;;;4745678;30;20705;-79
2021/03/11 00:18:05;;;;;;;10.40;7.33;;;;;;;;;;4745173;30;20765;-79
2021/03/11 00:20:33;;;;;;;11.73;7.47;;;;;;;;;;4744835;30;20251;-82
2021/03/11 00:23:02;;;;;;;12.37;8.43;;;;;;;;;;4743399;30;20222;-81
2021/03/11 00:25:33;;;;;;;11.43;7.70;;;;;;;;;;4743507;30;20228;-78
2021/03/11 00:28:00;;;;;;;13.53;6.90;;;;;;;;;;4757951;30;20270;-84
2021/03/11 00:30:28;;;;;;;8.97;6.70;;;;;;;;;;4742660;30;20248;-78
2021/03/11 00:32:57;;;;;;;8.63;6.50;;;;;;;;;;4746550;30;20244;-79
2021/03/11 00:35:24;;;;;;;10.07;6.97;;;;;;;;;;4750037;30;20338;-80
2021/03/11 00:37:52;;;;;;;11.27;6.57;;;;;;;;;;4747908;30;20238;-80
2021/03/11 00:40:21;;;;;;;9.63;6.27;;;;;;;;;;4749005;30;20715;-78
2021/03/11 00:42:49;;;;;;;8.40;6.40;;;;;;;;;;4747825;30;20233;-80
2021/03/11 00:45:17;;;;;;;8.37;5.97;;;;;;;;;;4743059;30;20250;-82
2021/03/11 00:47:45;;;;;;;10.70;6.33;;;;;;;;;;4746028;30;20232;-78
2021/03/11 00:50:16;;;;;;;9.03;6.50;;;;;;;;;;4749324;30;20235;-80
2021/03/11 00:52:43;;;;;;;10.00;6.90;;;;;;;;;;4726402;30;20240;-79
2021/03/11 00:55:15;;;;;;;10.03;6.93;;;;;;;;;;4752143;30;20252;-81
2021/03/11 00:57:43;;;;;;;14.30;7.23;;;;;;;;;;4744247;30;20236;-80
2021/03/11 01:00:14;;;;;;;11.67;6.47;;;;;;;;;;4727487;30;20239;-82
2021/03/11 01:03:08;;;;;;;10.23;6.97;;;;;;;;;;4748420;30;20239;-79
2021/03/11 01:05:45;;;;;;;11.30;7.40;;;;;;;;;;4759536;30;20259;-80
2021/03/11 01:08:20;;;;;;;9.80;6.80;;;;;;;;;;4745313;30;20346;-78
2021/03/11 01:10:48;;;;;;;11.53;7.00;;;;;;;;;;4733030;30;20243;-79
2021/03/11 01:13:15;;;;;;;9.17;7.27;;;;;;;;;;4742514;30;20248;-78
2021/03/11 01:15:44;;;;;;;10.37;6.93;;;;;;;;;;4746072;30;20244;-84
2021/03/11 01:18:13;;;;;;;12.27;7.67;;;;;;;;;;4744316;29;20718;-78
2021/03/11 01:20:41;;;;;;;10.10;7.73;;;;;;;;;;4757825;30;20237;-79
2021/03/11 01:23:10;;;;;;;11.03;7.57;;;;;;;;;;4743955;30;20233;-86
2021/03/11 01:25:37;;;;;;;12.23;8.20;;;;;;;;;;4758515;30;20241;-85
2021/03/11 01:28:05;;;;;;;14.00;8.90;;;;;;;;;;4756526;30;20232;-78
2021/03/11 01:30:32;;;;;;;12.53;8.13;;;;;;;;;;4743771;30;20240;-81
2021/03/11 01:33:00;;;;;;;15.17;8.70;;;;;;;;;;4727736;30;20236;-79
2021/03/11 01:35:28;;;;;;;12.37;8.20;;;;;;;;;;4744674;30;20253;-79
2021/03/11 01:37:56;;;;;;;12.57;8.20;;;;;;;;;;4745938;30;20240;-81
2021/03/11 01:40:24;;;;;;;11.17;7.03;;;;;;;;;;4747704;29;20514;-77
2021/03/11 01:42:52;;;;;;;13.07;7.73;;;;;;;;;;4744808;30;20229;-83
2021/03/11 01:45:20;;;;;;;11.97;8.07;;;;;;;;;;4744446;30;20241;-79
2021/03/11 01:47:48;;;;;;;13.57;7.47;;;;;;;;;;4743938;30;20607;-83
2021/03/11 01:50:16;;;;;;;11.83;7.67;;;;;;;;;;4744135;30;20735;-83
2021/03/11 01:52:44;;;;;;;14.20;7.60;;;;;;;;;;4760594;30;20724;-83
2021/03/11 01:55:13;;;;;;;10.90;7.10;;;;;;;;;;4759494;30;20248;-78
2021/03/11 01:57:42;;;;;;;10.77;7.40;;;;;;;;;;4742896;30;20747;-78
2021/03/11 02:00:11;;;;;;;11.23;7.43;;;;;;;;;;4742753;30;20241;-82
2021/03/11 02:02:41;;;;;;;10.00;6.57;;;;;;;;;;4751125;30;20237;-81
2021/03/11 02:05:11;;;;;;;8.00;5.70;;;;;;;;;;4737119;30;20230;-78
2021/03/11 02:07:38;;;;;;;9.83;5.87;;;;;;;;;;4759916;30;20638;-83
2021/03/11 02:10:08;;;;;;;9.53;6.17;;;;;;;;;;4756353;30;20256;-77
2021/03/11 02:12:39;;;;;;;11.13;6.67;;;;;;;;;;4744526;30;20249;-78
2021/03/11 02:15:12;;;;;;;10.20;6.27;;;;;;;;;;4739578;30;20242;-85
2021/03/11 02:17:41;;;;;;;9.73;5.43;;;;;;;;;;4742284;30;20260;-82
2021/03/11 02:20:45;;;;;;;7.13;5.50;;;;;;;;;;4745308;30;20605;-78
2021/03/11 02:23:35;;;;;;;8.33;5.93;;;;;;;;;;4756389;29;20237;-80
2021/03/11 02:26:10;;;;;;;9.10;5.83;;;;;;;;;;4742240;30;20260;-78
2021/03/11 02:28:52;;;;;;;9.57;5.67;;;;;;;;;;4755909;30;20621;-78
2021/03/11 02:31:20;;;;;;;11.77;5.57;;;;;;;;;;4741653;30;20237;-78
2021/03/11 02:33:49;;;;;;;7.93;5.40;;;;;;;;;;4735062;30;20248;-86
2021/03/11 02:36:16;;;;;;;7.00;5.30;;;;;;;;;;4767850;29;20218;-90
2021/03/11 02:38:44;;;;;;;8.70;5.30;;;;;;;;;;4769068;29;20234;-80
2021/03/11 02:41:13;;;;;;;8.63;5.20;;;;;;;;;;4728571;30;20234;-79
2021/03/11 02:43:41;;;;;;;7.30;4.97;;;;;;;;;;4742020;30;20255;-78
2021/03/11 02:46:10;;;;;;;8.90;5.17;;;;;;;;;;4743761;30;20244;-78
2021/03/11 02:48:38;;;;;;;8.20;4.77;;;;;;;;;;4756481;30;20244;-78
2021/03/11 02:51:05;;;;;;;8.67;5.63;;;;;;;;;;4742734;30;21019;-82
2021/03/11 02:53:33;;;;;;;6.80;4.90;;;;;;;;;;4756926;30;20225;-85
2021/03/11 02:56:01;;;;;;;4.90;4.07;;;;;;;;;;4755164;30;20241;-78
2021/03/11 02:58:28;;;;;;;7.87;4.60;;;;;;;;;;4732948;30;20607;-78
2021/03/11 03:00:56;;;;;;;6.80;4.80;;;;;;;;;;4725895;30;20233;-79
2021/03/11 03:03:25;;;;;;;6.53;4.80;;;;;;;;;;4726618;30;20257;-81
2021/03/11 03:05:53;;;;;;;6.40;4.70;;;;;;;;;;4743836;30;20249;-80
2021/03/11 03:08:21;;;;;;;6.80;4.40;;;;;;;;;;4729129;30;20247;-77
2021/03/11 03:10:48;;;;;;;6.20;4.50;;;;;;;;;;4730452;30;20436;-79
2021/03/11 03:13:17;;;;;;;5.63;4.17;;;;;;;;;;4755676;30;20249;-86
2021/03/11 03:15:45;;;;;;;6.73;4.17;;;;;;;;;;4748601;29;20245;-79
2021/03/11 03:18:14;;;;;;;5.13;4.07;;;;;;;;;;4731461;30;20612;-78
2021/03/11 03:20:43;;;;;;;6.97;4.83;;;;;;;;;;4746249;30;20704;-78
2021/03/11 03:23:12;;;;;;;7.83;4.90;;;;;;;;;;4747422;30;20245;-77
2021/03/11 03:25:47;;;;;;;7.67;4.57;;;;;;;;;;4744767;30;20337;-78
2021/03/11 03:28:15;;;;;;;9.90;5.33;;;;;;;;;;4761376;30;20616;-79
2021/03/11 03:30:45;;;;;;;8.00;5.50;;;;;;;;;;4744542;30;20244;-78
2021/03/11 03:33:13;;;;;;;8.90;5.90;;;;;;;;;;4745515;30;20240;-82
2021/03/11 03:35:41;;;;;;;9.47;6.70;;;;;;;;;;4741268;30;20754;-78
2021/03/11 03:38:10;;;;;;;12.77;7.73;;;;;;;;;;4746894;30;20240;-80
2021/03/11 03:40:37;;;;;;;12.63;7.90;;;;;;;;;;4745062;30;20245;-77
2021/03/11 03:43:10;;;;;;;12.67;7.33;;;;;;;;;;4742788;30;20249;-79
2021/03/11 03:45:40;;;;;;;17.17;8.33;;;;;;;;;;4724898;30;20591;-77
2021/03/11 03:48:10;;;;;;;13.03;7.80;;;;;;;;;;4744195;30;20256;-81
2021/03/11 03:50:39;;;;;;;12.47;7.93;;;;;;;;;;4758660;30;20233;-78
2021/03/11 03:53:10;;;;;;;13.33;7.83;;;;;;;;;;4746948;30;20226;-79
2021/03/11 03:55:38;;;;;;;12.07;7.93;;;;;;;;;;4742528;30;20231;-85
2021/03/11 03:58:06;;;;;;;12.30;7.53;;;;;;;;;;4737096;30;20248;-78
2021/03/11 04:00:34;;;;;;;11.93;7.53;;;;;;;;;;4744269;30;20249;-78
2021/03/11 04:03:02;;;;;;;12.10;7.87;;;;;;;;;;4746335;30;20269;-78
2021/03/11 04:05:30;;;;;;;10.57;7.37;;;;;;;;;;4740713;30;20242;-78
2021/03/11 04:07:58;;;;;;;11.93;7.50;;;;;;;;;;4756507;30;20242;-78
2021/03/11 04:10:27;;;;;;;10.73;6.87;;;;;;;;;;4743192;30;20608;-81
2021/03/11 04:12:55;;;;;;;14.23;6.83;;;;;;;;;;4757200;30;20234;-78
2021/03/11 04:15:22;;;;;;;11.10;7.40;;;;;;;;;;4726920;30;20246;-78
2021/03/11 04:17:52;;;;;;;12.43;7.27;;;;;;;;;;4740888;29;20459;-82
2021/03/11 04:20:20;;;;;;;11.73;6.90;;;;;;;;;;4743085;29;20708;-83
2021/03/11 04:22:48;;;;;;;12.67;7.63;;;;;;;;;;4746807;29;20247;-79
2021/03/11 04:25:16;;;;;;;10.33;6.73;;;;;;;;;;4741973;30;20241;-81
2021/03/11 04:27:44;;;;;;;9.40;7.10;;;;;;;;;;4749375;30;20238;-79
2021/03/11 04:30:13;;;;;;;11.27;7.13;;;;;;;;;;4742889;30;20249;-82
2021/03/11 04:32:42;;;;;;;10.30;6.90;;;;;;;;;;4746496;30;20257;-78
2021/03/11 04:35:10;;;;;;;13.63;7.13;;;;;;;;;;4745713;30;20241;-78
2021/03/11 04:37:40;;;;;;;11.33;6.77;;;;;;;;;;4746683;29;20233;-87
2021/03/11 04:40:09;;;;;;;10.77;6.13;;;;;;;;;;4741380;30;20234;-80
2021/03/11 04:42:37;;;;;;;10.97;6.57;;;;;;;;;;4743982;30;20234;-82
2021/03/11 04:45:07;;;;;;;11.30;7.40;;;;;;;;;;4745678;30;20241;-78
2021/03/11 04:47:36;;;;;;;11.00;7.17;;;;;;;;;;4757366;30;20631;-79
2021/03/11 04:50:05;;;;;;;9.83;6.13;;;;;;;;;;4743342;30;20238;-78
2021/03/11 04:52:33;;;;;;;10.93;6.47;;;;;;;;;;4754392;30;20245;-86
2021/03/11 04:55:01;;;;;;;9.33;6.17;;;;;;;;;;4755565;30;20258;-83
2021/03/11 04:57:28;;;;;;;9.60;6.27;;;;;;;;;;4742822;30;20234;-86
2021/03/11 04:59:57;;;;;;;12.37;6.77;;;;;;;;;;4736007;30;20238;-86
2021/03/11 05:02:27;;;;;;;12.30;6.50;;;;;;;;;;4744523;30;20230;-81
2021/03/11 05:04:55;;;;;;;9.33;6.13;;;;;;;;;;4739271;30;20234;-81
2021/03/11 05:07:22;;;;;;;10.70;5.70;;;;;;;;;;4726501;30;20772;-81
2021/03/11 05:09:50;;;;;;;10.40;5.97;;;;;;;;;;4739814;30;20238;-79
2021/03/11 05:12:18;;;;;;;10.07;5.83;;;;;;;;;;4730022;30;20252;-82
2021/03/11 05:14:46;;;;;;;10.73;5.67;;;;;;;;;;4746419;30;20696;-78
2021/03/11 05:17:13;;;;;;;8.53;5.60;;;;;;;;;;4741141;30;20230;-83
2021/03/11 05:19:42;;;;;;;7.83;5.43;;;;;;;;;;4740496;30;20238;-78
2021/03/11 05:22:10;;;;;;;7.80;5.97;;;;;;;;;;4748170;30;20668;-78
2021/03/11 05:24:37;;;;;;;9.73;5.33;;;;;;;;;;4745049;30;20238;-78
2021/03/11 05:27:14;;;;;;;10.53;6.17;;;;;;;;;;4752143;30;20249;-88
2021/03/11 05:29:41;;;;;;;8.37;5.50;;;;;;;;;;4750808;30;20210;-88
2021/03/11 05:32:09;;;;;;;9.90;5.53;;;;;;;;;;4739262;30;20249;-78
2021/03/11 05:34:37;;;;;;;7.53;5.43;;;;;;;;;;4740726;30;20704;-79
2021/03/11 05:37:06;;;;;;;10.90;5.80;;;;;;;;;;4731895;30;20604;-79
2021/03/11 05:39:34;;;;;;;8.50;5.83;;;;;;;;;;4742262;30;20870;-80
2021/03/11 05:42:01;;;;;;;7.40;5.07;;;;;;;;;;4744512;30;20282;-78
2021/03/11 05:44:29;;;;;;;8.03;5.40;;;;;;;;;;4746804;30;20266;-85
2021/03/11 05:46:58;;;;;;;10.27;5.87;;;;;;;;;;4744433;29;20241;-78
2021/03/11 05:49:26;;;;;;;9.13;5.27;;;;;;;;;;4753147;30;20241;-83
2021/03/11 05:51:54;;;;;;;8.93;5.00;;;;;;;;;;4738321;30;20615;-85
2021/03/11 05:54:27;;;;;;;7.67;5.00;;;;;;;;;;4761299;30;20241;-78
2021/03/11 05:56:55;;;;;;;7.50;5.30;;;;;;;;;;4746939;30;20776;-78
2021/03/11 05:59:23;;;;;;;7.10;4.97;;;;;;;;;;4732870;30;20237;-78
2021/03/11 06:01:51;;;;;;;7.10;4.60;;;;;;;;;;4739490;30;20233;-80
2021/03/11 06:04:19;;;;;;;8.70;4.87;;;;;;;;;;4755003;30;20245;-78
2021/03/11 06:06:46;;;;;;;7.30;5.03;;;;;;;;;;4729475;30;20242;-80
2021/03/11 06:09:17;;;;;;;8.53;5.20;;;;;;;;;;4734578;29;20735;-81
2021/03/11 06:11:45;;;;;;;9.37;5.30;;;;;;;;;;4745017;30;20241;-82
2021/03/11 06:14:15;;;;;;;9.23;5.20;;;;;;;;;;4740652;30;20249;-78
2021/03/11 06:16:47;;;;;;;10.60;5.10;;;;;;;;;;4743894;30;20238;-89
2021/03/11 06:19:15;;;;;;;8.03;4.83;;;;;;;;;;4746445;30;20241;-78
2021/03/11 06:21:44;;;;;;;9.77;5.43;;;;;;;;;;4745332;30;20226;-78
2021/03/11 06:24:11;;;;;;;8.50;5.40;;;;;;;;;;4745786;30;20241;-78
2021/03/11 06:26:39;;;;;;;8.37;4.77;;;;;;;;;;4746421;30;20736;-79
2021/03/11 06:29:07;;;;;;;8.07;4.80;;;;;;;;;;4755120;30;20238;-88
2021/03/11 06:31:37;;;;;;;11.03;4.93;;;;;;;;;;4763417;30;20217;-88
2021/03/11 06:34:19;;;;;;;8.63;5.00;;;;;;;;;;4774982;30;20229;-85
2021/03/11 06:36:47;;;;;;;6.07;4.00;;;;;;;;;;4746879;30;20237;-81
2021/03/11 06:39:24;;;;;;;7.40;4.83;;;;;;;;;;4744891;29;20245;-78
2021/03/11 06:41:52;;;;;;;6.67;4.50;;;;;;;;;;4736327;30;20230;-77
2021/03/11 06:44:33;;;;;;;5.83;4.30;;;;;;;;;;4736661;30;20249;-81
2021/03/11 06:47:03;;;;;;;8.40;4.77;;;;;;;;;;4729831;30;20248;-80
2021/03/11 06:49:31;;;;;;;7.87;4.07;;;;;;;;;;4734220;30;20230;-78
2021/03/11 06:52:13;;;;;;;7.17;4.37;;;;;;;;;;4743166;30;20245;-82
2021/03/11 06:54:51;;;;;;;6.10;4.33;;;;;;;;;;4758679;30;20240;-83
2021/03/11 06:57:30;;;;;;;6.20;4.33;;;;;;;;;;4758709;30;20242;-78
2021/03/11 07:00:00;;;;;;;6.70;4.40;;;;;;;;;;4737617;30;20610;-79
2021/03/11 07:02:29;;;;;;;6.47;4.37;;;;;;;;;;4755329;30;20712;-79
2021/03/11 07:05:11;;;;;;;7.47;4.20;;;;;;;;;;4729727;30;20237;-78
2021/03/11 07:07:39;;;;;;;7.37;4.60;;;;;;;;;;4742460;29;20257;-77
2021/03/11 07:10:07;;;;;;;7.57;5.03;;;;;;;;;;4739717;30;20744;-80
2021/03/11 07:12:49;;;;;;;8.10;4.80;;;;;;;;;;4741130;30;20653;-80
2021/03/11 07:15:20;;;;;;;6.93;4.63;;;;;;;;;;4742759;30;20250;-77
2021/03/11 07:17:49;;;;;;;5.87;4.33;;;;;;;;;;4752952;30;20247;-79
2021/03/11 07:20:18;;;;;;;6.57;4.50;;;;;;;;;;4746657;30;20238;-78
2021/03/11 07:23:09;;;;;;;6.93;4.70;;;;;;;;;;4755521;30;20245;-78
2021/03/11 07:25:38;;;;;;;7.20;4.30;;;;;;;;;;4739398;30;20732;-78
2021/03/11 07:28:07;;;;;;;6.67;4.17;;;;;;;;;;4740728;30;20234;-78
2021/03/11 07:30:49;;;;;;;13.47;4.57;;;;;;;;;;4735737;30;20737;-85
2021/03/11 07:33:19;;;;;;;6.93;4.60;;;;;;;;;;4744108;30;20234;-86
2021/03/11 07:35:48;;;;;;;5.30;4.47;;;;;;;;;;4731406;30;20722;-78
2021/03/11 07:38:17;;;;;;;6.23;4.00;;;;;;;;;;4735264;30;20226;-82
2021/03/11 07:40:47;;;;;;;6.70;4.03;;;;;;;;;;4733423;30;20234;-78
2021/03/11 07:43:15;;;;;;;6.03;4.47;;;;;;;;;;4740857;30;22730;-79
2021/03/11 07:45:43;;;;;;;7.50;4.00;;;;;;;;;;4743493;30;20242;-79
2021/03/11 07:48:12;;;;;;;7.57;4.60;;;;;;;;;;4741583;30;20242;-78
2021/03/11 07:50:41;;;;;;;6.23;3.93;;;;;;;;;;4727467;30;20701;-79
2021/03/11 07:53:09;;;;;;;6.93;4.13;;;;;;;;;;4722906;29;20238;-82
2021/03/11 07:55:38;;;;;;;5.97;3.90;;;;;;;;;;4741390;30;20250;-78
2021/03/11 07:58:07;;;;;;;6.50;4.03;;;;;;;;;;4737659;30;20234;-81
2021/03/11 08:00:35;;;;;;;4.90;3.40;;;;;;;;;;4722228;30;20242;-81
2021/03/11 08:03:06;;;;;;;4.93;3.63;;;;;;;;;;4741018;30;20231;-78
2021/03/11 08:05:35;;;;;;;5.10;3.43;;;;;;;;;;4748575;30;20234;-78
2021/03/11 08:08:21;;;;;;;5.30;3.37;;;;;;;;;;4739179;30;20537;-79
2021/03/11 08:10:50;;;;;;;5.80;3.97;;;;;;;;;;4745431;30;20241;-83
2021/03/11 08:13:32;;;;;;;8.50;4.10;;;;;;;;;;4744687;30;20710;-78
2021/03/11 08:16:01;;;;;;;7.87;4.00;;;;;;;;;;4750089;30;20785;-80
2021/03/11 08:18:44;;;;;;;7.50;3.47;;;;;;;;;;4739416;30;20226;-78
2021/03/11 08:21:45;;;;;;;6.60;3.90;;;;;;;;;;4761505;30;20240;-83
2021/03/11 08:24:40;;;;;;;5.97;3.33;;;;;;;;;;4739413;30;20236;-83
2021/03/11 08:27:37;;;;;;;5.60;3.20;;;;;;;;;;4741237;30;20230;-85
2021/03/11 08:30:08;;;;;;;5.77;4.03;;;;;;;;;;4756693;30;20239;-78
2021/03/11 08:32:48;;;;;;;4.40;3.50;;;;;;;;;;4743629;30;20735;-80
2021/03/11 08:35:34;;;;;;;4.93;3.33;;;;;;;;;;4748838;30;20242;-79
2021/03/11 08:38:37;;;;;;;4.40;3.07;;;;;;;;;;4758041;30;20236;-80
2021/03/11 08:41:07;;;;;;;4.17;3.00;;;;;;;;;;4740634;30;20233;-81
2021/03/11 08:43:49;;;;;;;4.10;2.83;;;;;;;;;;4759260;30;20238;-79
2021/03/11 08:46:18;;;;;;;3.60;3.00;;;;;;;;;;4738602;30;20258;-81
2021/03/11 08:48:49;;;;;;;3.87;2.70;;;;;;;;;;4730978;30;20813;-84
2021/03/11 08:51:36;;;;;;;3.73;3.00;;;;;;;;;;4739143;30;20241;-80
2021/03/11 08:54:05;;;;;;;4.03;2.90;;;;;;;;;;4740846;29;23216;-82
2021/03/11 08:56:41;;;;;;;5.47;2.97;;;;;;;;;;4730101;30;20230;-84
2021/03/11 08:59:14;;;;;;;4.03;2.90;;;;;;;;;;4741230;30;20237;-78
2021/03/11 09:01:44;;;;;;;7.27;3.00;;;;;;;;;;4744482;30;20231;-78
2021/03/11 09:04:35;;;;;;;4.03;2.63;;;;;;;;;;4757002;29;20245;-77
2021/03/11 09:07:03;;;;;;;5.27;2.63;;;;;;;;;;4743187;30;20234;-79
2021/03/11 09:09:33;;;;;;;4.33;3.10;;;;;;;;;;4729627;30;20250;-81
2021/03/11 09:12:04;;;;;;;3.83;2.60;;;;;;;;;;4728392;30;20916;-78
2021/03/11 09:14:32;;;;;;;4.37;2.60;;;;;;;;;;4747764;29;20327;-80
2021/03/11 09:17:06;;;;;;;4.53;2.60;;;;;;;;;;4755209;30;20233;-80
2021/03/11 09:19:42;;;;;;;5.03;2.53;;;;;;;;;;4746246;30;20732;-78
2021/03/11 09:22:18;;;;;;;2.33;1.83;;;;;;;;;;4747002;30;20276;-79
2021/03/11 09:24:59;;;;;;;4.77;2.30;;;;;;;;;;4758462;30;20249;-78
2021/03/11 09:27:29;;;;;;;4.67;2.60;;;;;;;;;;4735879;29;22198;-78
2021/03/11 09:30:12;;;;;;;2.93;2.03;;;;;;;;;;4752390;30;20622;-79
2021/03/11 09:32:39;;;;;;;3.77;2.30;;;;;;;;;;4745893;30;20616;-81
2021/03/11 09:35:09;;;;;;;3.77;2.23;;;;;;;;;;4745138;30;20249;-80
2021/03/11 09:37:51;;;;;;;4.40;2.33;;;;;;;;;;4733760;30;20231;-78
2021/03/11 09:40:25;;;;;;;8.77;2.43;;;;;;;;;;4758132;30;20248;-76
2021/03/11 09:43:05;;;;;;;4.90;2.60;;;;;;;;;;4742558;30;20249;-78
2021/03/11 09:45:35;;;;;;;3.87;2.20;;;;;;;;;;4749332;30;20265;-77
2021/03/11 09:48:05;;;;;;;2.73;1.73;;;;;;;;;;4740249;30;20238;-77
2021/03/11 09:50:33;;;;;;;5.23;1.90;;;;;;;;;;4728010;30;20242;-76
2021/03/11 09:53:02;;;;;;;7.50;2.30;;;;;;;;;;4753631;30;20230;-79
2021/03/11 09:55:30;;;;;;;1.97;1.73;;;;;;;;;;4743799;29;20249;-77
2021/03/11 09:57:57;;;;;;;5.47;2.80;;;;;;;;;;4740410;30;20728;-80
2021/03/11 10:00:40;;;;;;;2.23;1.83;;;;;;;;;;4739702;30;20238;-80
2021/03/11 10:03:15;;;;;;;2.80;2.03;;;;;;;;;;4738475;30;20226;-77
2021/03/11 10:05:44;;;;;;;3.60;1.70;;;;;;;;;;4741748;30;20253;-80
2021/03/11 10:08:24;;;;;;;2.23;1.60;;;;;;;;;;4741138;30;20766;-80
2021/03/11 10:11:06;;;;;;;2.90;2.03;;;;;;;;;;4741457;30;20234;-77
2021/03/11 10:13:40;;;;;;;2.57;1.73;;;;;;;;;;4745835;30;20229;-79
2021/03/11 10:16:09;;;;;;;4.20;2.17;;;;;;;;;;4744505;30;20275;-82
2021/03/11 10:18:38;;;;;;;2.87;2.17;;;;;;;;;;4748996;30;20230;-81
2021/03/11 10:21:08;;;;;;;2.17;1.70;;;;;;;;;;4744085;29;20226;-79
2021/03/11 10:23:38;;;;;;;3.10;1.67;;;;;;;;;;4757184;30;20231;-80
2021/03/11 10:26:17;;;;;;;2.37;1.80;;;;;;;;;;4733478;30;20238;-78
2021/03/11 10:28:47;;;;;;;3.50;2.03;;;;;;;;;;4749114;30;20249;-81
2021/03/11 10:31:16;;;;;;;2.53;1.90;;;;;;;;;;4744137;30;20255;-82
2021/03/11 10:33:44;;;;;;;2.93;2.00;;;;;;;;;;4745129;30;20237;-80
2021/03/11 10:36:15;;;;;;;3.07;2.10;;;;;;;;;;4741775;30;20246;-80
2021/03/11 10:38:44;;;;;;;2.00;1.70;;;;;;;;;;4746018;30;20234;-78
2021/03/11 10:41:13;;;;;;;4.97;2.20;;;;;;;;;;4741090;30;20241;-77
2021/03/11 10:43:42;;;;;;;3.10;2.03;;;;;;;;;;4753408;29;20746;-78
2021/03/11 10:46:17;;;;;;;2.97;1.97;;;;;;;;;;4737229;30;20238;-79
2021/03/11 10:48:52;;;;;;;2.10;1.70;;;;;;;;;;4726746;30;20238;-79
2021/03/11 10:51:22;;;;;;;3.60;2.27;;;;;;;;;;4732560;30;20242;-80
2021/03/11 10:53:50;;;;;;;2.70;2.20;;;;;;;;;;4736187;30;20240;-82
2021/03/11 10:56:18;;;;;;;2.70;2.07;;;;;;;;;;4747829;30;20238;-81
2021/03/11 10:58:46;;;;;;;3.73;2.03;;;;;;;;;;4734581;30;20230;-78
2021/03/11 11:01:31;;;;;;;2.53;1.87;;;;;;;;;;4692158;30;20613;-79
2021/03/11 11:03:59;;;;;;;2.77;1.70;;;;;;;;;;4743899;30;20234;-82
2021/03/11 11:06:29;;;;;;;3.70;1.93;;;;;;;;;;4752875;30;20241;-79
2021/03/11 11:08:57;;;;;;;2.63;2.10;;;;;;;;;;4756787;30;20237;-78
2021/03/11 11:11:25;;;;;;;2.23;1.67;;;;;;;;;;4763935;30;20263;-77
2021/03/11 11:13:54;;;;;;;4.67;2.13;;;;;;;;;;4767328;29;20229;-75
2021/03/11 11:16:21;;;;;;;3.27;1.77;;;;;;;;;;4755737;29;20248;-79
2021/03/11 11:18:50;;;;;;;1.90;1.60;;;;;;;;;;4754221;30;20312;-82
2021/03/11 11:21:19;;;;;;;1.63;1.50;;;;;;;;;;4705078;29;20234;-79
2021/03/11 11:23:48;;;;;;;2.97;2.30;;;;;;;;;;4740909;30;20227;-81
2021/03/11 11:26:16;;;;;;;4.90;1.73;;;;;;;;;;4740917;30;20241;-79
2021/03/11 11:28:43;;;;;;;2.33;2.10;;;;;;;;;;4757974;30;20230;-77
2021/03/11 11:31:11;;;;;;;3.50;2.20;;;;;;;;;;4731368;30;20242;-80
2021/03/11 11:33:38;;;;;;;3.50;1.97;;;;;;;;;;4747600;30;20249;-80
2021/03/11 11:36:07;;;;;;;2.53;1.73;;;;;;;;;;4747772;30;20736;-80
2021/03/11 11:38:35;;;;;;;1.77;1.67;;;;;;;;;;4752939;30;20245;-79
2021/03/11 11:41:02;;;;;;;4.13;2.00;;;;;;;;;;4755638;30;20230;-79
2021/03/11 11:43:30;;;;;;;2.20;1.70;;;;;;;;;;4748820;30;20740;-79
2021/03/11 11:45:57;;;;;;;3.47;1.97;;;;;;;;;;4751250;30;20223;-79
2021/03/11 11:48:28;;;;;;;11.37;7.97;;;;;;;;;;4754083;30;20619;-79
2021/03/11 11:50:55;;;;;;;5.07;2.73;;;;;;;;;;4727247;30;20249;-78
2021/03/11 11:53:24;;;;;;;2.43;2.00;;;;;;;;;;4738641;30;20238;-79
2021/03/11 11:55:52;;;;;;;2.87;2.00;;;;;;;;;;4763370;30;20252;-78
2021/03/11 11:58:19;;;;;;;2.33;1.63;;;;;;;;;;4759716;30;20234;-79
2021/03/11 12:00:52;;;;;;;4.17;1.80;;;;;;;;;;4754335;30;20253;-79
2021/03/11 12:03:22;;;;;;;2.17;1.87;;;;;;;;;;4749926;30;20701;-79
2021/03/11 12:05:49;;;;;;;3.10;1.97;;;;;;;;;;4748046;30;20246;-77
2021/03/11 12:08:17;;;;;;;2.30;1.63;;;;;;;;;;4746843;30;20238;-79
2021/03/11 12:10:45;;;;;;;3.10;2.17;;;;;;;;;;4750375;30;20238;-77
2021/03/11 12:13:13;;;;;;;4.97;2.03;;;;;;;;;;4749749;30;20248;-79
2021/03/11 12:15:40;;;;;;;3.17;1.80;;;;;;;;;;4736729;30;20234;-79
2021/03/11 12:18:08;;;;;;;3.20;1.90;;;;;;;;;;4747944;30;20238;-80
2021/03/11 12:20:36;;;;;;;2.30;1.70;;;;;;;;;;4723612;30;20597;-79
2021/03/11 12:23:05;;;;;;;3.97;1.53;;;;;;;;;;4742914;30;20238;-81
2021/03/11 12:25:33;;;;;;;1.80;1.70;;;;;;;;;;4752935;30;20242;-80
2021/03/11 12:28:03;;;;;;;2.73;1.70;;;;;;;;;;4753514;30;20230;-77
2021/03/11 12:30:31;;;;;;;3.97;1.97;;;;;;;;;;4739135;29;20238;-78
2021/03/11 12:32:59;;;;;;;2.90;1.70;;;;;;;;;;4743980;30;20239;-80
2021/03/11 12:35:28;;;;;;;2.83;1.77;;;;;;;;;;4747791;30;20257;-79
2021/03/11 12:37:55;;;;;;;2.90;1.67;;;;;;;;;;4756807;30;20739;-80
2021/03/11 12:40:23;;;;;;;1.40;1.30;;;;;;;;;;4747921;30;20236;-81
2021/03/11 12:42:51;;;;;;;4.87;1.70;;;;;;;;;;4757044;30;20245;-82
2021/03/11 12:45:22;;;;;;;3.77;1.60;;;;;;;;;;4759008;30;20246;-78
2021/03/11 12:47:50;;;;;;;3.17;1.40;;;;;;;;;;4734005;30;20247;-80
2021/03/11 12:50:19;;;;;;;1.70;1.60;;;;;;;;;;4747430;30;20230;-80
2021/03/11 12:52:46;;;;;;;3.10;1.60;;;;;;;;;;4743165;30;20242;-81
2021/03/11 12:55:14;;;;;;;2.67;1.50;;;;;;;;;;4747878;30;20253;-81
2021/03/11 12:57:42;;;;;;;3.00;1.60;;;;;;;;;;4735177;30;20245;-79
2021/03/11 13:00:23;;;;;;;7.73;1.80;;;;;;;;;;4758537;30;20721;-82
2021/03/11 13:03:04;;;;;;;2.43;1.30;;;;;;;;;;4749284;30;20238;-80
2021/03/11 13:05:33;;;;;;;3.43;1.60;;;;;;;;;;4749794;30;20238;-81
2021/03/11 13:08:01;;;;;;;1.87;1.53;;;;;;;;;;4745963;30;20230;-82
2021/03/11 13:10:29;;;;;;;2.30;1.23;;;;;;;;;;4747828;30;20242;-82
2021/03/11 13:12:56;;;;;;;2.03;1.30;;;;;;;;;;4750229;30;20576;-81
2021/03/11 13:15:25;;;;;;;1.70;1.60;;;;;;;;;;4751936;30;20246;-81
2021/03/11 13:17:53;;;;;;;1.87;1.40;;;;;;;;;;4761624;30;20230;-78
2021/03/11 13:20:20;;;;;;;3.10;1.60;;;;;;;;;;4760878;30;20237;-82
2021/03/11 13:22:49;;;;;;;3.03;1.33;;;;;;;;;;4750567;30;20243;-78
2021/03/11 13:25:18;;;;;;;4.60;1.50;;;;;;;;;;4747568;30;20245;-81
2021/03/11 13:27:46;;;;;;;2.33;1.50;;;;;;;;;;4735053;30;20624;-83
2021/03/11 13:30:14;;;;;;;2.67;1.50;;;;;;;;;;4753351;29;20245;-81
2021/03/11 13:32:46;;;;;;;1.70;1.30;;;;;;;;;;4739937;30;20912;-77
2021/03/11 13:35:14;;;;;;;3.47;1.70;;;;;;;;;;4750574;30;20613;-78
2021/03/11 13:37:42;;;;;;;3.10;1.57;;;;;;;;;;4748711;30;20794;-81
2021/03/11 13:40:11;;;;;;;2.80;1.83;;;;;;;;;;4741040;30;20246;-80
2021/03/11 13:42:39;;;;;;;4.70;1.60;;;;;;;;;;4748691;30;20250;-77
2021/03/11 13:45:08;;;;;;;4.30;1.20;;;;;;;;;;4745389;30;20241;-79
2021/03/11 13:47:36;;;;;;;2.73;1.20;;;;;;;;;;4736895;30;20237;-81
2021/03/11 13:50:06;;;;;;;2.80;1.50;;;;;;;;;;4741331;30;20230;-82
2021/03/11 13:52:34;;;;;;;2.03;1.40;;;;;;;;;;4752749;30;20249;-83
2021/03/11 13:55:04;;;;;;;3.23;1.50;;;;;;;;;;4740432;30;20591;-80
2021/03/11 13:57:31;;;;;;;1.33;1.20;;;;;;;;;;4741333;30;20230;-81
2021/03/11 13:59:59;;;;;;;1.40;1.10;;;;;;;;;;4726406;30;20241;-79
2021/03/11 14:02:26;;;;;;;2.23;1.60;;;;;;;;;;4748421;30;20241;-77
2021/03/11 14:04:54;;;;;;;3.43;1.33;;;;;;;;;;4764995;29;20226;-78
2021/03/11 14:07:23;;;;;;;1.50;1.10;;;;;;;;;;4774954;30;20240;-80
2021/03/11 14:09:51;;;;;;;2.50;1.10;;;;;;;;;;4750658;30;20246;-81
2021/03/11 14:12:18;;;;;;;1.57;1.03;;;;;;;;;;4752465;30;20735;-80
2021/03/11 14:14:47;;;;;;;5.07;1.20;;;;;;;;;;4753989;30;20252;-82
2021/03/11 14:17:15;;;;;;;1.70;1.10;;;;;;;;;;4754694;30;20238;-82
2021/03/11 14:19:42;;;;;;;2.57;1.30;;;;;;;;;;4738548;30;20245;-81
2021/03/11 14:22:10;;;;;;;1.30;1.20;;;;;;;;;;4749547;30;20249;-81
2021/03/11 14:24:38;;;;;;;3.10;1.37;;;;;;;;;;4754114;30;20230;-79
2021/03/11 14:27:06;;;;;;;2.97;1.37;;;;;;;;;;4752655;30;20269;-80
2021/03/11 14:29:34;;;;;;;2.13;1.33;;;;;;;;;;4767242;30;20237;-79
2021/03/11 14:32:02;;;;;;;3.20;1.60;;;;;;;;;;4752794;29;20241;-82
2021/03/11 14:34:30;;;;;;;1.73;1.40;;;;;;;;;;4755060;30;20233;-81
2021/03/11 14:36:58;;;;;;;2.63;1.10;;;;;;;;;;4754388;30;20242;-78
2021/03/11 14:39:25;;;;;;;3.23;1.50;;;;;;;;;;4736902;30;20247;-80
2021/03/11 14:41:54;;;;;;;2.67;1.50;;;;;;;;;;4751300;30;20366;-79
2021/03/11 14:44:22;;;;;;;2.40;1.27;;;;;;;;;;4747647;30;20239;-80
2021/03/11 14:46:50;;;;;;;2.43;1.50;;;;;;;;;;4751670;30;20230;-79
2021/03/11 14:49:17;;;;;;;5.03;1.60;;;;;;;;;;4731472;30;20226;-78
2021/03/11 14:51:47;;;;;;;1.60;1.40;;;;;;;;;;4752787;30;20234;-79
2021/03/11 14:54:15;;;;;;;2.43;1.60;;;;;;;;;;4751251;30;20728;-78
2021/03/11 14:56:42;;;;;;;5.30;1.83;;;;;;;;;;4761097;30;20238;-78
2021/03/11 14:59:11;;;;;;;1.70;1.40;;;;;;;;;;4749378;29;20752;-80